createdAt,value
2023-02-27T00:00:20.573Z,97710.38
2023-02-27T00:03:05.756Z,97715.88
2023-02-27T00:05:51.168Z,97709.19
2023-02-27T00:08:36.601Z,97711.91
2023-02-27T00:11:22.059Z,97713.03
2023-02-27T00:14:10.141Z,97714.00
2023-02-27T00:16:55.623Z,97712.47
2023-02-27T00:19:41.131Z,97715.38
2023-02-27T00:22:28.324Z,97723.47
2023-02-27T00:25:14.381Z,97717.59
2023-02-27T00:28:00.532Z,97723.06
2023-02-27T00:30:46.415Z,97728.56
2023-02-27T00:33:31.837Z,97724.31
2023-02-27T00:36:17.315Z,97726.94
2023-02-27T00:39:03.012Z,97732.13
2023-02-27T00:41:48.622Z,97730.34
2023-02-27T00:44:33.880Z,97728.56
2023-02-27T00:47:19.407Z,97727.59
2023-02-27T00:50:05.361Z,97724.03
2023-02-27T00:52:50.990Z,97723.91
2023-02-27T00:55:36.630Z,97725.53
2023-02-27T00:58:22.351Z,97728.13
2023-02-27T01:01:07.773Z,97728.97
2023-02-27T01:03:53.283Z,97733.19
2023-02-27T01:06:38.485Z,97727.84
2023-02-27T01:09:25.091Z,97730.31
2023-02-27T01:12:10.459Z,97725.94
2023-02-27T01:14:55.946Z,97722.50
2023-02-27T01:17:41.396Z,97716.66
2023-02-27T01:20:26.867Z,97717.72
2023-02-27T01:23:12.754Z,97720.47
2023-02-27T01:25:58.403Z,97712.81
2023-02-27T01:28:45.778Z,97717.34
2023-02-27T01:31:31.299Z,97724.47
2023-02-27T01:34:16.891Z,97723.78
2023-02-27T01:37:02.886Z,97722.94
2023-02-27T01:39:48.898Z,97727.50
2023-02-27T01:42:34.410Z,97728.72
2023-02-27T01:45:27.365Z,97727.22
2023-02-27T01:48:31.960Z,97732.72
2023-02-27T01:51:20.744Z,97730.22
2023-02-27T01:54:09.132Z,97729.72
2023-02-27T01:56:54.974Z,97732.59
2023-02-27T01:59:43.818Z,97732.72
2023-02-27T02:02:37.490Z,97739.03
2023-02-27T02:05:23.523Z,97736.56
2023-02-27T02:08:11.834Z,97742.03
2023-02-27T02:10:59.258Z,97752.69
2023-02-27T02:13:44.940Z,97749.28
2023-02-27T02:16:39.475Z,97749.44
2023-02-27T02:19:30.974Z,97759.94
2023-02-27T02:22:38.808Z,97762.00
2023-02-27T02:25:36.526Z,97757.09
2023-02-27T02:28:59.363Z,97756.56
2023-02-27T02:32:24.305Z,97754.34
2023-02-27T02:35:36.021Z,97757.38
2023-02-27T02:38:47.656Z,97763.94
2023-02-27T02:41:42.332Z,97769.41
2023-02-27T02:44:46.483Z,97765.28
2023-02-27T02:47:59.374Z,97763.09
2023-02-27T02:51:04.605Z,97772.13
2023-02-27T02:54:08.387Z,97768.03
2023-02-27T02:57:03.046Z,97776.91
2023-02-27T03:00:06.380Z,97769.38
2023-02-27T03:02:59.341Z,97769.66
2023-02-27T03:05:54.845Z,97776.75
2023-02-27T03:08:50.077Z,97778.00
2023-02-27T03:11:40.208Z,97784.28
2023-02-27T03:14:37.445Z,97779.19
2023-02-27T03:17:28.510Z,97774.97
2023-02-27T03:20:29.565Z,97780.28
2023-02-27T03:23:35.007Z,97776.88
2023-02-27T03:26:27.747Z,97788.22
2023-02-27T03:29:20.180Z,97788.34
2023-02-27T03:32:17.539Z,97786.84
2023-02-27T03:35:05.629Z,97799.00
2023-02-27T03:38:06.450Z,97803.47
2023-02-27T03:41:00.659Z,97795.84
2023-02-27T03:44:25.240Z,97808.13
2023-02-27T03:47:11.022Z,97805.94
2023-02-27T03:49:56.949Z,97808.66
2023-02-27T03:52:43.049Z,97805.38
2023-02-27T03:55:34.095Z,97805.50
2023-02-27T03:58:21.088Z,97806.59
2023-02-27T04:01:06.976Z,97807.81
2023-02-27T04:04:04.196Z,97804.78
2023-02-27T04:07:44.291Z,97807.78
2023-02-27T04:10:53.456Z,97803.91
2023-02-27T04:13:53.875Z,97804.19
2023-02-27T04:16:59.649Z,97810.31
2023-02-27T04:20:01.799Z,97806.09
2023-02-27T04:22:54.986Z,97809.63
2023-02-27T04:26:02.034Z,97810.97
2023-02-27T04:29:04.196Z,97820.09
2023-02-27T04:32:13.327Z,97819.66
2023-02-27T04:35:03.100Z,97827.81
2023-02-27T04:38:16.302Z,97819.63
2023-02-27T04:41:08.777Z,97830.22
2023-02-27T04:43:55.509Z,97834.03
2023-02-27T04:46:43.857Z,97830.28
2023-02-27T04:49:35.745Z,97824.69
2023-02-27T04:52:44.755Z,97831.63
2023-02-27T04:55:39.706Z,97833.53
2023-02-27T04:58:37.294Z,97845.91
2023-02-27T05:01:30.092Z,97840.03
2023-02-27T05:04:23.888Z,97839.31
2023-02-27T05:07:17.280Z,97842.75
2023-02-27T05:10:10.419Z,97841.09
2023-02-27T05:13:09.447Z,97845.22
2023-02-27T05:16:04.172Z,97840.72
2023-02-27T05:18:50.158Z,97845.91
2023-02-27T05:21:42.229Z,97847.44
2023-02-27T05:24:47.932Z,97846.72
2023-02-27T05:27:42.634Z,97853.81
2023-02-27T05:30:36.476Z,97848.88
2023-02-27T05:33:33.371Z,97853.50
2023-02-27T05:36:25.092Z,97851.97
2023-02-27T05:39:11.948Z,97859.03
2023-02-27T05:42:04.118Z,97858.34
2023-02-27T05:44:59.528Z,97861.63
2023-02-27T05:47:52.705Z,97860.56
2023-02-27T05:50:40.007Z,97862.91
2023-02-27T05:53:32.045Z,97864.28
2023-02-27T05:56:21.359Z,97876.06
2023-02-27T05:59:32.494Z,97873.78
2023-02-27T06:02:17.968Z,97875.88
2023-02-27T06:05:03.564Z,97877.97
2023-02-27T06:07:49.401Z,97876.50
2023-02-27T06:10:34.777Z,97882.13
2023-02-27T06:13:20.159Z,97880.69
2023-02-27T06:16:07.129Z,97882.75
2023-02-27T06:18:52.376Z,97885.81
2023-02-27T06:21:37.538Z,97886.25
2023-02-27T06:24:23.228Z,97885.03
2023-02-27T06:27:08.750Z,97879.47
2023-02-27T06:29:54.695Z,97890.28
2023-02-27T06:32:40.465Z,97886.44
2023-02-27T06:35:25.964Z,97893.03
2023-02-27T06:38:11.175Z,97887.72
2023-02-27T06:40:56.577Z,97890.31
2023-02-27T06:43:41.931Z,97904.00
2023-02-27T06:46:27.734Z,97896.22
2023-02-27T06:49:13.869Z,97904.09
2023-02-27T06:52:02.031Z,97896.44
2023-02-27T06:54:47.510Z,97906.97
2023-02-27T06:57:33.070Z,97914.03
2023-02-27T07:00:19.661Z,97915.00
2023-02-27T07:03:05.348Z,97915.97
2023-02-27T07:05:50.744Z,97912.53
2023-02-27T07:08:36.058Z,97917.72
2023-02-27T07:11:21.592Z,97918.00
2023-02-27T07:14:06.880Z,97915.41
2023-02-27T07:16:54.946Z,97914.47
2023-02-27T07:19:40.685Z,97913.38
2023-02-27T07:22:26.116Z,97918.84
2023-02-27T07:25:11.956Z,97918.34
2023-02-27T07:27:57.529Z,97916.88
2023-02-27T07:30:43.609Z,97921.53
2023-02-27T07:33:29.467Z,97924.47
2023-02-27T07:36:14.715Z,97922.41
2023-02-27T07:39:00.148Z,97929.81
2023-02-27T07:41:45.656Z,97930.34
2023-02-27T07:44:35.676Z,97932.00
2023-02-27T07:47:21.234Z,97931.06
2023-02-27T07:50:07.155Z,97937.63
2023-02-27T07:52:53.117Z,97942.56
2023-02-27T07:55:38.632Z,97944.09
2023-02-27T07:58:24.161Z,97938.75
2023-02-27T08:01:12.153Z,97939.16
2023-02-27T08:03:57.700Z,97941.38
2023-02-27T08:06:42.854Z,97942.78
2023-02-27T08:09:28.416Z,97948.38
2023-02-27T08:12:13.844Z,97948.25
2023-02-27T08:14:59.242Z,97946.06
2023-02-27T08:17:48.244Z,97944.03
2023-02-27T08:20:33.745Z,97939.38
2023-02-27T08:23:19.026Z,97944.03
2023-02-27T08:26:04.626Z,97941.84
2023-02-27T08:28:50.222Z,97946.66
2023-02-27T08:31:36.018Z,97949.41
2023-02-27T08:34:21.804Z,97945.56
2023-02-27T08:37:07.124Z,97948.59
2023-02-27T08:39:52.584Z,97947.53
2023-02-27T08:42:38.341Z,97949.69
2023-02-27T08:45:23.981Z,97954.22
2023-02-27T08:48:10.435Z,97944.94
2023-02-27T08:50:57.838Z,97950.00
2023-02-27T08:53:43.733Z,97955.88
2023-02-27T08:56:29.454Z,97950.53
2023-02-27T08:59:16.045Z,97955.03
2023-02-27T09:02:01.667Z,97957.06
2023-02-27T09:04:46.903Z,97958.41
2023-02-27T09:07:36.884Z,97952.38
2023-02-27T09:10:22.714Z,97965.53
2023-02-27T09:13:08.014Z,97964.41
2023-02-27T09:15:54.294Z,97966.72
2023-02-27T09:18:39.852Z,97974.81
2023-02-27T09:21:25.469Z,97970.13
2023-02-27T09:24:19.932Z,97967.91
2023-02-27T09:27:06.431Z,97974.06
2023-02-27T09:29:56.371Z,97969.13
2023-02-27T09:32:42.608Z,97970.31
2023-02-27T09:35:28.140Z,97971.69
2023-02-27T09:38:13.846Z,97969.47
2023-02-27T09:40:59.635Z,97974.38
2023-02-27T09:43:49.158Z,97973.41
2023-02-27T09:46:34.495Z,97985.31
2023-02-27T09:49:22.264Z,97986.53
2023-02-27T09:52:13.510Z,97993.09
2023-02-27T09:54:59.414Z,97994.22
2023-02-27T09:57:56.338Z,97991.06
2023-02-27T10:00:49.072Z,97999.03
2023-02-27T10:03:41.676Z,97996.00
2023-02-27T10:06:43.824Z,97995.06
2023-02-27T10:09:52.669Z,98001.22
2023-02-27T10:13:03.472Z,97995.06
2023-02-27T10:15:51.752Z,98008.88
2023-02-27T10:18:59.460Z,98015.50
2023-02-27T10:21:48.664Z,98015.78
2023-02-27T10:24:51.178Z,98013.47
2023-02-27T10:27:37.963Z,98019.94
2023-02-27T10:30:30.049Z,98010.63
2023-02-27T10:33:36.860Z,98029.53
2023-02-27T10:36:33.628Z,98022.69
2023-02-27T10:39:21.174Z,98017.63
2023-02-27T10:42:10.826Z,98016.94
2023-02-27T10:44:56.408Z,98027.75
2023-02-27T10:47:43.184Z,98029.41
2023-02-27T10:50:32.250Z,98033.09
2023-02-27T10:53:25.265Z,98035.03
2023-02-27T10:56:16.497Z,98031.59
2023-02-27T10:59:08.170Z,98026.53
2023-02-27T11:02:01.327Z,98033.38
2023-02-27T11:04:55.662Z,98029.53
2023-02-27T11:07:41.192Z,98023.75
2023-02-27T11:10:29.032Z,98024.28
2023-02-27T11:13:24.697Z,98015.91
2023-02-27T11:16:16.775Z,98023.16
2023-02-27T11:19:35.871Z,98011.19
2023-02-27T11:22:24.539Z,98014.69
2023-02-27T11:25:26.191Z,98006.44
2023-02-27T11:28:28.616Z,97999.97
2023-02-27T11:31:22.463Z,98007.03
2023-02-27T11:34:08.416Z,98001.03
2023-02-27T11:37:26.316Z,97998.16
2023-02-27T11:40:14.671Z,98001.50
2023-02-27T11:43:47.234Z,98002.47
2023-02-27T11:46:46.411Z,97997.09
2023-02-27T11:49:37.198Z,97998.09
2023-02-27T11:52:34.199Z,98005.22
2023-02-27T11:55:28.028Z,97993.16
2023-02-27T11:58:19.026Z,97995.50
2023-02-27T12:01:08.591Z,97996.03
2023-02-27T12:04:10.107Z,98001.75
2023-02-27T12:07:34.569Z,97989.53
2023-02-27T12:10:28.585Z,97991.41
2023-02-27T12:13:19.550Z,97986.44
2023-02-27T12:16:25.034Z,97987.47
2023-02-27T12:20:04.697Z,97990.91
2023-02-27T12:22:53.770Z,97988.19
2023-02-27T12:25:52.521Z,97987.25
2023-02-27T12:29:02.240Z,97985.06
2023-02-27T12:31:54.428Z,97982.34
2023-02-27T12:34:49.810Z,97979.25
2023-02-27T12:37:38.041Z,97976.06
2023-02-27T12:40:35.876Z,97977.25
2023-02-27T12:43:40.571Z,97975.03
2023-02-27T12:46:40.725Z,97976.66
2023-02-27T12:49:52.992Z,97974.75
2023-02-27T12:52:56.908Z,97974.59
2023-02-27T12:56:04.280Z,97977.88
2023-02-27T12:59:08.079Z,97974.59
2023-02-27T13:02:14.343Z,97970.84
2023-02-27T13:05:24.158Z,97957.81
2023-02-27T13:08:39.852Z,97956.03
2023-02-27T13:12:02.192Z,97959.88
2023-02-27T13:15:00.000Z,97965.09
2023-02-27T13:18:08.269Z,97959.44
2023-02-27T13:20:59.548Z,97958.69
2023-02-27T13:24:02.761Z,97961.69
2023-02-27T13:26:57.825Z,97957.34
2023-02-27T13:29:52.553Z,97954.66
2023-02-27T13:32:48.942Z,97957.47
2023-02-27T13:35:58.335Z,97958.94
2023-02-27T13:38:48.248Z,97958.66
2023-02-27T13:41:38.595Z,97950.66
2023-02-27T13:44:24.175Z,97951.19
2023-02-27T13:47:38.369Z,97950.88
2023-02-27T13:50:26.917Z,97945.97
2023-02-27T13:53:17.723Z,97942.16
2023-02-27T13:56:21.947Z,97954.91
2023-02-27T13:59:35.133Z,97953.63
2023-02-27T14:02:30.924Z,97948.56
2023-02-27T14:05:17.251Z,97950.50
2023-02-27T14:08:11.900Z,97957.97
2023-02-27T14:11:17.777Z,97954.56
2023-02-27T14:14:04.231Z,97956.13
2023-02-27T14:16:51.031Z,97948.94
2023-02-27T14:19:42.643Z,97951.03
2023-02-27T14:22:44.079Z,97952.16
2023-02-27T14:26:18.023Z,97963.03
2023-02-27T14:29:04.389Z,97958.94
2023-02-27T14:31:53.135Z,97956.31
2023-02-27T14:34:40.756Z,97957.88
2023-02-27T14:37:27.607Z,97955.19
2023-02-27T14:40:29.673Z,97961.19
2023-02-27T14:43:56.747Z,97962.75
2023-02-27T14:46:42.484Z,97960.25
2023-02-27T14:49:35.537Z,97959.28
2023-02-27T14:52:23.563Z,97960.13
2023-02-27T14:55:29.826Z,97968.75
2023-02-27T14:58:18.477Z,97971.09
2023-02-27T15:01:09.856Z,97956.56
2023-02-27T15:03:59.227Z,97959.81
2023-02-27T15:06:48.947Z,97958.56
2023-02-27T15:09:44.678Z,97965.28
2023-02-27T15:12:31.230Z,97962.66
2023-02-27T15:15:21.888Z,97965.78
2023-02-27T15:18:15.138Z,97953.91
2023-02-27T15:21:00.281Z,97956.06
2023-02-27T15:24:04.103Z,97965.91
2023-02-27T15:26:54.561Z,97964.63
2023-02-27T15:29:48.093Z,97962.00
2023-02-27T15:32:36.343Z,97965.31
2023-02-27T15:35:26.898Z,97954.84
2023-02-27T15:38:24.499Z,97958.22
2023-02-27T15:41:13.681Z,97961.44
2023-02-27T15:43:59.419Z,97962.88
2023-02-27T15:46:46.540Z,97968.25
2023-02-27T15:49:32.052Z,97965.91
2023-02-27T15:52:26.591Z,97975.03
2023-02-27T15:55:24.603Z,97974.50
2023-02-27T15:58:19.403Z,97987.03
2023-02-27T16:01:09.354Z,97985.84
2023-02-27T16:04:14.337Z,97992.31
2023-02-27T16:07:05.511Z,97998.81
2023-02-27T16:10:02.920Z,97995.69
2023-02-27T16:12:48.235Z,98006.28
2023-02-27T16:15:36.381Z,98001.19
2023-02-27T16:18:46.026Z,97999.84
2023-02-27T16:21:31.416Z,98007.31
2023-02-27T16:24:21.942Z,98010.50
2023-02-27T16:27:25.635Z,98012.69
2023-02-27T16:30:12.606Z,98011.34
2023-02-27T16:33:01.935Z,98018.13
2023-02-27T16:35:47.811Z,98020.34
2023-02-27T16:38:33.469Z,98014.75
2023-02-27T16:41:21.394Z,98016.81
2023-02-27T16:44:06.816Z,98025.88
2023-02-27T16:46:56.642Z,98024.53
2023-02-27T16:49:44.367Z,98025.50
2023-02-27T16:52:29.961Z,98029.22
2023-02-27T16:55:15.447Z,98031.28
2023-02-27T16:58:00.829Z,98031.69
2023-02-27T17:00:49.197Z,98036.38
2023-02-27T17:03:34.954Z,98043.69
2023-02-27T17:06:20.565Z,98041.34
2023-02-27T17:09:05.915Z,98039.00
2023-02-27T17:11:51.185Z,98040.00
2023-02-27T17:14:36.555Z,98040.81
2023-02-27T17:17:21.993Z,98051.22
2023-02-27T17:20:08.360Z,98052.03
2023-02-27T17:22:53.669Z,98061.66
2023-02-27T17:25:40.730Z,98057.94
2023-02-27T17:28:26.215Z,98066.59
2023-02-27T17:31:15.227Z,98073.41
2023-02-27T17:34:01.200Z,98075.22
2023-02-27T17:36:48.381Z,98076.03
2023-02-27T17:39:34.226Z,98081.38
2023-02-27T17:42:19.737Z,98091.81
2023-02-27T17:45:06.929Z,98084.94
2023-02-27T17:47:52.312Z,98080.69
2023-02-27T17:50:37.702Z,98089.75
2023-02-27T17:53:23.098Z,98088.81
2023-02-27T17:56:09.440Z,98096.78
2023-02-27T17:58:55.103Z,98092.66
2023-02-27T18:01:40.504Z,98094.44
2023-02-27T18:04:25.940Z,98094.72
2023-02-27T18:07:11.212Z,98099.09
2023-02-27T18:09:56.700Z,98104.88
2023-02-27T18:12:42.297Z,98110.47
2023-02-27T18:15:27.998Z,98108.97
2023-02-27T18:18:16.310Z,98103.09
2023-02-27T18:21:08.323Z,98103.09
2023-02-27T18:23:54.717Z,98108.31
2023-02-27T18:26:40.231Z,98111.03
2023-02-27T18:29:26.222Z,98118.03
2023-02-27T18:32:12.932Z,98120.66
2023-02-27T18:34:58.578Z,98109.53
2023-02-27T18:37:43.873Z,98113.25
2023-02-27T18:40:29.730Z,98117.09
2023-02-27T18:43:15.247Z,98118.19
2023-02-27T18:46:00.984Z,98115.84
2023-02-27T18:48:46.593Z,98118.75
2023-02-27T18:51:32.302Z,98123.25
2023-02-27T18:54:17.740Z,98125.00
2023-02-27T18:57:03.408Z,98115.69
2023-02-27T18:59:49.230Z,98127.09
2023-02-27T19:02:37.224Z,98127.09
2023-02-27T19:05:22.681Z,98123.78
2023-02-27T19:08:08.003Z,98120.34
2023-02-27T19:10:53.559Z,98113.78
2023-02-27T19:13:39.046Z,98118.19
2023-02-27T19:16:24.601Z,98121.75
2023-02-27T19:19:10.926Z,98120.91
2023-02-27T19:21:56.637Z,98121.88
2023-02-27T19:24:42.246Z,98124.59
2023-02-27T19:27:27.743Z,98125.44
2023-02-27T19:30:14.929Z,98127.19
2023-02-27T19:33:00.877Z,98127.19
2023-02-27T19:35:46.275Z,98129.81
2023-02-27T19:38:31.532Z,98130.75
2023-02-27T19:41:17.809Z,98129.00
2023-02-27T19:44:03.544Z,98126.38
2023-02-27T19:46:51.823Z,98125.69
2023-02-27T19:49:37.762Z,98128.28
2023-02-27T19:52:24.368Z,98125.84
2023-02-27T19:55:10.393Z,98123.22
2023-02-27T19:57:56.323Z,98125.84
2023-02-27T20:00:41.974Z,98126.78
2023-02-27T20:03:29.332Z,98127.88
2023-02-27T20:06:20.294Z,98128.69
2023-02-27T20:09:05.916Z,98132.38
2023-02-27T20:11:53.904Z,98127.47
2023-02-27T20:14:40.151Z,98134.59
2023-02-27T20:17:25.672Z,98134.88
2023-02-27T20:20:11.826Z,98139.50
2023-02-27T20:22:59.008Z,98136.47
2023-02-27T20:25:44.098Z,98136.88
2023-02-27T20:28:29.680Z,98134.69
2023-02-27T20:31:16.775Z,98129.88
2023-02-27T20:34:06.036Z,98125.75
2023-02-27T20:36:52.733Z,98126.84
2023-02-27T20:39:38.327Z,98127.09
2023-02-27T20:42:23.740Z,98122.19
2023-02-27T20:45:09.396Z,98131.06
2023-02-27T20:47:55.689Z,98121.63
2023-02-27T20:50:41.653Z,98121.63
2023-02-27T20:53:26.950Z,98119.97
2023-02-27T20:56:12.376Z,98120.91
2023-02-27T20:58:59.745Z,98121.06
2023-02-27T21:01:51.602Z,98123.91
2023-02-27T21:04:43.181Z,98124.03
2023-02-27T21:07:29.078Z,98122.66
2023-02-27T21:10:14.294Z,98123.75
2023-02-27T21:12:59.690Z,98121.53
2023-02-27T21:15:45.707Z,98124.41
2023-02-27T21:18:31.642Z,98120.41
2023-02-27T21:21:26.481Z,98119.84
2023-02-27T21:24:12.329Z,98117.50
2023-02-27T21:27:00.029Z,98121.47
2023-02-27T21:29:45.675Z,98124.44
2023-02-27T21:32:31.109Z,98121.97
2023-02-27T21:35:16.626Z,98121.28
2023-02-27T21:38:01.828Z,98114.56
2023-02-27T21:40:47.451Z,98112.91
2023-02-27T21:43:33.939Z,98110.44
2023-02-27T21:46:20.826Z,98116.47
2023-02-27T21:49:06.770Z,98117.31
2023-02-27T21:51:54.304Z,98111.25
2023-02-27T21:54:39.656Z,98127.56
2023-02-27T21:57:24.927Z,98123.88
2023-02-27T22:00:11.517Z,98123.88
2023-02-27T22:02:57.057Z,98125.53
2023-02-27T22:05:43.842Z,98119.38
2023-02-27T22:08:29.134Z,98116.09
2023-02-27T22:11:14.748Z,98118.69
2023-02-27T22:14:00.296Z,98117.88
2023-02-27T22:16:46.180Z,98128.25
2023-02-27T22:19:31.568Z,98118.81
2023-02-27T22:22:17.073Z,98119.75
2023-02-27T22:25:02.665Z,98121.56
2023-02-27T22:27:47.845Z,98112.09
2023-02-27T22:30:34.369Z,98111.25
2023-02-27T22:33:19.982Z,98117.31
2023-02-27T22:36:13.602Z,98118.13
2023-02-27T22:38:59.695Z,98113.75
2023-02-27T22:41:46.232Z,98111.16
2023-02-27T22:44:31.368Z,98111.16
2023-02-27T22:47:16.935Z,98116.34
2023-02-27T22:50:03.818Z,98113.63
2023-02-27T22:52:49.273Z,98114.44
2023-02-27T22:55:34.602Z,98114.31
2023-02-27T22:58:23.676Z,98116.09
2023-02-27T23:01:19.085Z,98115.13
2023-02-27T23:04:07.660Z,98116.78
2023-02-27T23:06:56.142Z,98110.63
2023-02-27T23:09:41.922Z,98114.06
2023-02-27T23:12:28.217Z,98109.66
2023-02-27T23:15:13.655Z,98116.50
2023-02-27T23:17:58.946Z,98113.81
2023-02-27T23:20:44.334Z,98112.97
2023-02-27T23:23:29.710Z,98115.44
2023-02-27T23:26:15.975Z,98122.28
2023-02-27T23:29:01.711Z,98121.47
2023-02-27T23:31:48.154Z,98117.91
2023-02-27T23:34:49.151Z,98116.13
2023-02-27T23:37:34.866Z,98115.19
2023-02-27T23:40:22.290Z,98115.19
2023-02-27T23:43:07.731Z,98117.91
2023-02-27T23:45:53.460Z,98111.78
2023-02-27T23:48:39.276Z,98104.22
2023-02-27T23:51:24.523Z,98113.53
2023-02-27T23:54:13.564Z,98111.06
2023-02-27T23:56:58.944Z,98105.88
2023-02-27T23:59:44.398Z,98106.69
